createdAt,value
2019-03-19T00:00:34.026Z,8.00
2019-03-19T00:03:02.867Z,8.20
2019-03-19T00:05:31.703Z,8.40
2019-03-19T00:08:00.598Z,8.40
2019-03-19T00:10:29.448Z,8.40
2019-03-19T00:12:58.294Z,8.20
2019-03-19T00:15:27.984Z,8.20
2019-03-19T00:17:56.810Z,8.10
2019-03-19T00:20:25.645Z,8.20
2019-03-19T00:22:54.543Z,8.30
2019-03-19T00:25:29.865Z,8.30
2019-03-19T00:27:53.878Z,8.20
2019-03-19T00:30:22.767Z,8.20
2019-03-19T00:32:51.613Z,8.20
2019-03-19T00:35:20.456Z,8.30
2019-03-19T00:37:49.336Z,8.40
2019-03-19T00:40:18.176Z,8.40
2019-03-19T00:42:47.038Z,8.40
2019-03-19T00:45:16.037Z,8.40
2019-03-19T00:47:44.862Z,8.30
2019-03-19T00:50:17.037Z,8.10
2019-03-19T00:52:45.945Z,8.10
2019-03-19T00:55:15.181Z,8.10
2019-03-19T00:57:44.024Z,8.10
2019-03-19T01:00:17.763Z,8.10
2019-03-19T01:02:46.607Z,8.10
2019-03-19T01:05:15.768Z,8.10
2019-03-19T01:07:44.655Z,8.00
2019-03-19T01:10:17.013Z,8.00
2019-03-19T01:12:44.997Z,8.00
2019-03-19T01:15:16.655Z,8.10
2019-03-19T01:17:45.499Z,8.10
2019-03-19T01:20:15.742Z,8.10
2019-03-19T01:22:44.640Z,8.10
2019-03-19T01:25:13.601Z,8.00
2019-03-19T01:27:42.426Z,7.90
2019-03-19T01:30:17.686Z,8.00
2019-03-19T01:32:46.521Z,8.00
2019-03-19T01:35:15.349Z,8.10
2019-03-19T01:37:44.245Z,8.20
2019-03-19T01:40:13.590Z,8.20
2019-03-19T01:42:42.431Z,8.20
2019-03-19T01:45:14.872Z,8.30
2019-03-19T01:47:43.725Z,8.30
2019-03-19T01:50:16.177Z,8.20
2019-03-19T01:52:45.176Z,8.10
2019-03-19T01:55:16.714Z,8.10
2019-03-19T01:57:45.573Z,8.10
2019-03-19T02:03:03.976Z,8.10
2019-03-19T02:05:32.810Z,8.10
2019-03-19T02:08:01.734Z,8.10
2019-03-19T02:10:30.584Z,8.20
2019-03-19T02:12:59.398Z,8.20
2019-03-19T02:15:28.285Z,8.20
2019-03-19T02:17:57.121Z,8.20
2019-03-19T02:20:25.977Z,8.20
2019-03-19T02:22:54.879Z,8.20
2019-03-19T02:25:23.710Z,8.10
2019-03-19T02:27:52.563Z,8.10
2019-03-19T02:30:21.464Z,8.10
2019-03-19T02:32:50.296Z,8.00
2019-03-19T02:35:19.149Z,8.00
2019-03-19T02:37:48.049Z,8.10
2019-03-19T02:40:19.625Z,8.10
2019-03-19T02:42:48.519Z,8.10
2019-03-19T02:45:17.566Z,8.10
2019-03-19T02:47:46.449Z,8.10
2019-03-19T02:50:16.494Z,8.20
2019-03-19T02:52:45.407Z,8.20
2019-03-19T02:55:14.259Z,8.20
2019-03-19T02:57:43.092Z,8.30
2019-03-19T03:00:13.910Z,8.10
2019-03-19T03:02:42.760Z,8.10
2019-03-19T03:05:16.259Z,8.10
2019-03-19T03:07:45.174Z,8.10
2019-03-19T03:10:14.195Z,8.10
2019-03-19T03:12:43.034Z,8.10
2019-03-19T03:15:15.410Z,8.10
2019-03-19T03:17:44.258Z,8.10
2019-03-19T03:20:14.087Z,8.20
2019-03-19T03:22:43.860Z,8.10
2019-03-19T03:25:14.101Z,8.00
2019-03-19T03:27:42.957Z,8.00
2019-03-19T03:30:23.670Z,8.00
2019-03-19T03:32:52.865Z,8.10
2019-03-19T03:35:21.789Z,8.10
2019-03-19T03:37:50.652Z,8.00
2019-03-19T03:40:20.385Z,8.00
2019-03-19T03:42:49.210Z,7.90
2019-03-19T03:45:19.012Z,7.80
2019-03-19T03:47:47.863Z,7.80
2019-03-19T03:50:17.515Z,7.90
2019-03-19T03:52:46.421Z,7.90
2019-03-19T03:55:20.184Z,8.00
2019-03-19T03:57:49.009Z,8.00
2019-03-19T04:00:18.900Z,7.90
2019-03-19T04:02:47.741Z,7.80
2019-03-19T04:05:16.558Z,7.80
2019-03-19T04:07:45.440Z,7.70
2019-03-19T04:10:16.439Z,7.80
2019-03-19T04:12:45.386Z,7.90
2019-03-19T04:15:18.063Z,7.90
2019-03-19T04:17:46.935Z,8.00
2019-03-19T04:20:17.568Z,8.00
2019-03-19T04:22:46.527Z,8.00
2019-03-19T04:25:15.406Z,8.00
2019-03-19T04:27:44.515Z,7.90
2019-03-19T04:30:17.894Z,7.90
2019-03-19T04:32:46.740Z,8.00
2019-03-19T04:35:15.555Z,7.90
2019-03-19T04:37:44.428Z,7.90
2019-03-19T04:40:14.279Z,7.90
2019-03-19T04:42:43.822Z,7.80
2019-03-19T04:45:17.780Z,7.90
2019-03-19T04:47:46.623Z,7.90
2019-03-19T04:50:16.466Z,7.80
2019-03-19T04:52:45.476Z,7.90
2019-03-19T04:55:16.176Z,7.90
2019-03-19T04:57:45.119Z,7.70
2019-03-19T05:00:16.952Z,7.60
2019-03-19T05:02:45.762Z,7.70
2019-03-19T05:05:14.740Z,7.70
2019-03-19T05:07:43.716Z,7.70
2019-03-19T05:10:19.022Z,7.70
2019-03-19T05:12:48.054Z,7.70
2019-03-19T05:15:16.897Z,7.70
2019-03-19T05:17:45.742Z,7.70
2019-03-19T05:20:18.320Z,7.70
2019-03-19T05:22:47.172Z,7.70
2019-03-19T05:25:16.026Z,7.70
2019-03-19T05:27:44.929Z,7.70
2019-03-19T05:30:17.774Z,7.80
2019-03-19T05:32:46.624Z,7.80
2019-03-19T05:35:15.528Z,7.90
2019-03-19T05:37:44.392Z,8.00
2019-03-19T05:40:15.098Z,8.10
2019-03-19T05:42:43.982Z,8.10
2019-03-19T05:45:16.586Z,8.00
2019-03-19T05:47:45.429Z,7.90
2019-03-19T05:50:15.693Z,7.90
2019-03-19T05:52:44.569Z,7.90
2019-03-19T05:55:13.486Z,7.90
2019-03-19T05:57:49.312Z,7.80
2019-03-19T06:00:17.328Z,7.70
2019-03-19T06:02:46.216Z,7.80
2019-03-19T06:05:15.065Z,8.20
2019-03-19T06:07:43.889Z,8.40
2019-03-19T06:10:14.569Z,8.60
2019-03-19T06:12:43.488Z,8.70
2019-03-19T06:15:16.472Z,8.70
2019-03-19T06:17:45.469Z,8.70
2019-03-19T06:20:15.514Z,8.50
2019-03-19T06:22:44.545Z,8.50
2019-03-19T06:25:13.830Z,8.50
2019-03-19T06:27:42.666Z,8.60
2019-03-19T06:30:21.946Z,8.60
2019-03-19T06:32:50.924Z,8.60
2019-03-19T06:35:20.549Z,8.60
2019-03-19T06:37:49.441Z,8.60
2019-03-19T06:40:22.026Z,8.30
2019-03-19T06:42:50.903Z,8.10
2019-03-19T06:45:22.868Z,7.90
2019-03-19T06:47:51.022Z,7.90
2019-03-19T06:50:21.089Z,7.80
2019-03-19T06:52:50.005Z,7.80
2019-03-19T06:55:19.905Z,7.80
2019-03-19T06:57:48.896Z,7.80
2019-03-19T07:00:19.909Z,7.70
2019-03-19T07:02:48.719Z,7.70
2019-03-19T07:05:18.770Z,7.70
2019-03-19T07:07:47.662Z,7.80
2019-03-19T07:10:20.267Z,7.80
2019-03-19T07:12:49.123Z,7.90
2019-03-19T07:15:19.953Z,7.90
2019-03-19T07:17:48.850Z,7.90
2019-03-19T07:20:18.984Z,8.00
2019-03-19T07:22:47.865Z,8.00
2019-03-19T07:25:16.705Z,7.90
2019-03-19T07:27:45.556Z,7.70
2019-03-19T07:30:19.610Z,7.60
2019-03-19T07:32:49.919Z,7.50
2019-03-19T07:35:18.758Z,7.50
2019-03-19T07:37:49.541Z,7.60
2019-03-19T07:40:18.347Z,7.80
2019-03-19T07:42:47.223Z,8.00
2019-03-19T07:45:20.311Z,8.10
2019-03-19T07:47:49.338Z,8.00
2019-03-19T07:50:22.462Z,8.00
2019-03-19T07:52:51.400Z,8.00
2019-03-19T07:55:20.248Z,7.80
2019-03-19T07:57:49.079Z,7.80
2019-03-19T08:00:20.026Z,7.50
2019-03-19T08:02:49.060Z,7.20
2019-03-19T08:05:17.901Z,7.00
2019-03-19T08:07:47.109Z,7.00
2019-03-19T08:10:19.696Z,7.10
2019-03-19T08:12:48.532Z,7.20
2019-03-19T08:15:19.306Z,7.40
2019-03-19T08:17:48.256Z,7.50
2019-03-19T08:20:18.108Z,7.70
2019-03-19T08:22:47.050Z,7.70
2019-03-19T08:25:18.899Z,7.50
2019-03-19T08:27:47.754Z,7.40
2019-03-19T08:30:20.666Z,7.60
2019-03-19T08:32:49.510Z,8.00
2019-03-19T08:35:18.345Z,8.20
2019-03-19T08:37:47.492Z,8.30
2019-03-19T08:40:20.646Z,8.20
2019-03-19T08:42:49.491Z,7.90
2019-03-19T08:45:22.800Z,7.60
2019-03-19T08:47:51.653Z,7.50
2019-03-19T08:50:21.613Z,7.60
2019-03-19T08:52:50.510Z,7.70
2019-03-19T08:55:19.351Z,7.90
2019-03-19T08:57:48.436Z,8.20
2019-03-19T09:00:20.254Z,8.70
2019-03-19T09:02:49.107Z,8.90
2019-03-19T09:05:17.964Z,9.10
2019-03-19T09:07:46.880Z,9.20
2019-03-19T09:10:17.684Z,9.50
2019-03-19T09:12:48.387Z,9.20
2019-03-19T09:15:29.913Z,8.80
2019-03-19T09:17:58.759Z,8.50
2019-03-19T09:20:27.609Z,8.10
2019-03-19T09:22:56.511Z,8.10
2019-03-19T09:25:25.365Z,8.30
2019-03-19T09:27:54.221Z,8.20
2019-03-19T09:30:24.212Z,8.20
2019-03-19T09:32:53.062Z,8.20
2019-03-19T09:35:21.949Z,8.30
2019-03-19T09:37:58.301Z,8.00
2019-03-19T09:40:22.678Z,7.90
2019-03-19T09:42:51.528Z,7.90
2019-03-19T09:45:20.798Z,8.00
2019-03-19T09:48:08.916Z,8.10
2019-03-19T09:50:37.808Z,8.20
2019-03-19T09:53:06.634Z,8.30
2019-03-19T09:55:35.502Z,8.20
2019-03-19T09:58:04.489Z,8.40
2019-03-19T10:00:33.310Z,8.40
2019-03-19T10:03:02.164Z,8.50
2019-03-19T10:05:31.073Z,8.50
2019-03-19T10:07:59.898Z,8.60
2019-03-19T10:10:28.777Z,8.50
2019-03-19T10:12:57.640Z,8.40
2019-03-19T10:15:26.473Z,8.60
2019-03-19T10:17:55.311Z,8.40
2019-03-19T10:20:25.303Z,8.40
2019-03-19T10:22:54.241Z,8.50
2019-03-19T10:25:23.077Z,8.60
2019-03-19T10:27:52.029Z,8.90
2019-03-19T10:30:24.319Z,9.20
2019-03-19T10:32:53.164Z,9.30
2019-03-19T10:35:22.159Z,9.20
2019-03-19T10:37:51.000Z,9.10
2019-03-19T10:40:20.574Z,9.10
2019-03-19T10:42:49.674Z,9.10
2019-03-19T10:45:19.713Z,9.20
2019-03-19T10:47:48.547Z,9.50
2019-03-19T10:50:24.541Z,9.50
2019-03-19T10:52:53.440Z,9.50
2019-03-19T10:55:22.297Z,9.60
2019-03-19T10:57:51.204Z,9.70
2019-03-19T11:00:24.947Z,9.60
2019-03-19T11:02:54.212Z,9.40
2019-03-19T11:05:23.803Z,9.40
2019-03-19T11:07:53.053Z,9.60
2019-03-19T11:10:21.998Z,9.70
2019-03-19T11:12:50.918Z,9.70
2019-03-19T11:15:24.607Z,9.40
2019-03-19T11:17:53.437Z,9.20
2019-03-19T11:20:22.333Z,9.40
2019-03-19T11:22:51.169Z,9.60
2019-03-19T11:25:24.964Z,9.80
2019-03-19T11:27:53.967Z,11.00
2019-03-19T11:30:27.586Z,11.10
2019-03-19T11:32:56.432Z,11.10
2019-03-19T11:35:25.414Z,10.80
2019-03-19T11:37:54.261Z,10.60
2019-03-19T11:40:25.579Z,10.70
2019-03-19T11:42:53.739Z,10.60
2019-03-19T11:45:23.688Z,10.40
2019-03-19T11:47:52.522Z,10.40
2019-03-19T11:50:29.506Z,10.60
2019-03-19T11:52:58.356Z,10.20
2019-03-19T11:55:27.379Z,9.80
2019-03-19T11:57:57.619Z,9.80
2019-03-19T12:00:36.584Z,9.90
2019-03-19T12:03:14.881Z,9.80
2019-03-19T12:05:36.806Z,9.90
2019-03-19T12:08:06.448Z,10.40
2019-03-19T12:10:35.369Z,10.70
2019-03-19T12:13:04.519Z,10.90
2019-03-19T12:15:33.326Z,11.10
2019-03-19T12:18:02.185Z,10.80
2019-03-19T12:20:31.044Z,10.50
2019-03-19T12:23:00.009Z,10.30
2019-03-19T12:25:31.065Z,10.20
2019-03-19T12:27:59.387Z,10.00
2019-03-19T12:30:29.013Z,9.80
2019-03-19T12:32:57.893Z,9.60
2019-03-19T12:35:26.743Z,9.60
2019-03-19T12:37:55.591Z,9.50
2019-03-19T12:40:35.841Z,9.50
2019-03-19T12:42:55.856Z,9.80
2019-03-19T12:45:25.888Z,9.90
2019-03-19T12:47:54.834Z,9.90
2019-03-19T12:50:25.702Z,9.80
2019-03-19T12:52:55.190Z,9.70
2019-03-19T12:55:25.753Z,9.80
2019-03-19T12:57:54.724Z,9.70
2019-03-19T13:00:34.006Z,9.80
2019-03-19T13:02:58.344Z,9.50
2019-03-19T13:05:27.235Z,9.20
2019-03-19T13:07:56.135Z,9.00
2019-03-19T13:10:25.528Z,9.20
2019-03-19T13:12:54.506Z,9.20
2019-03-19T13:15:23.510Z,9.10
2019-03-19T13:17:55.872Z,9.00
2019-03-19T13:20:24.849Z,9.00
2019-03-19T13:22:53.869Z,8.90
2019-03-19T13:25:23.835Z,8.90
2019-03-19T13:27:52.851Z,9.00
2019-03-19T13:30:44.070Z,9.10
2019-03-19T13:33:03.378Z,8.90
2019-03-19T13:35:32.220Z,8.70
2019-03-19T13:38:01.111Z,8.80
2019-03-19T13:40:31.253Z,8.80
2019-03-19T13:43:00.168Z,8.80
2019-03-19T13:45:30.040Z,8.70
2019-03-19T13:47:58.948Z,8.80
2019-03-19T13:50:27.941Z,8.70
2019-03-19T13:52:56.810Z,8.70
2019-03-19T13:55:25.997Z,8.90
2019-03-19T13:57:55.124Z,8.80
2019-03-19T14:00:24.015Z,8.70
2019-03-19T14:02:52.874Z,8.70
2019-03-19T14:05:21.913Z,8.60
2019-03-19T14:07:50.844Z,8.60
2019-03-19T14:10:20.612Z,8.60
2019-03-19T14:12:49.905Z,8.70
2019-03-19T14:15:24.127Z,8.60
2019-03-19T14:17:53.082Z,8.50
2019-03-19T14:20:21.948Z,8.60
2019-03-19T14:22:50.784Z,8.60
2019-03-19T14:25:19.764Z,8.50
2019-03-19T14:27:48.619Z,8.50
2019-03-19T14:30:22.379Z,8.60
2019-03-19T14:32:51.308Z,8.60
2019-03-19T14:35:20.257Z,8.40
2019-03-19T14:37:49.093Z,8.40
2019-03-19T14:40:24.680Z,8.40
2019-03-19T14:42:53.515Z,8.30
2019-03-19T14:45:23.052Z,8.30
2019-03-19T14:47:52.060Z,8.50
2019-03-19T14:50:22.093Z,8.50
2019-03-19T14:52:50.958Z,8.40
2019-03-19T14:55:20.041Z,8.50
2019-03-19T14:57:50.890Z,8.40
2019-03-19T15:00:23.054Z,8.30
2019-03-19T15:02:53.449Z,8.20
2019-03-19T15:05:23.865Z,8.10
2019-03-19T15:07:52.711Z,7.80
2019-03-19T15:10:22.590Z,7.80
2019-03-19T15:12:51.450Z,7.90
2019-03-19T15:15:22.163Z,7.90
2019-03-19T15:17:51.047Z,7.80
2019-03-19T15:20:22.042Z,7.70
2019-03-19T15:22:50.890Z,7.60
2019-03-19T15:25:19.913Z,7.50
2019-03-19T15:27:48.762Z,7.40
2019-03-19T15:30:21.314Z,7.30
2019-03-19T15:32:50.161Z,7.30
2019-03-19T15:35:19.089Z,7.30
2019-03-19T15:37:47.951Z,7.30
2019-03-19T15:40:21.190Z,7.20
2019-03-19T15:42:50.059Z,7.40
2019-03-19T15:45:24.306Z,7.40
2019-03-19T15:47:53.142Z,7.30
2019-03-19T15:50:21.972Z,7.40
2019-03-19T15:52:50.870Z,7.50
2019-03-19T15:55:19.712Z,7.50
2019-03-19T15:57:48.556Z,7.60
2019-03-19T16:00:21.185Z,7.80
2019-03-19T16:02:49.999Z,7.80
2019-03-19T16:05:18.828Z,7.80
2019-03-19T16:07:47.718Z,7.90
2019-03-19T16:10:18.333Z,7.90
2019-03-19T16:12:47.193Z,7.80
2019-03-19T16:15:20.914Z,7.60
2019-03-19T16:17:49.751Z,7.40
2019-03-19T16:20:20.715Z,7.40
2019-03-19T16:22:49.599Z,7.40
2019-03-19T16:25:18.437Z,7.50
2019-03-19T16:27:47.300Z,7.50
2019-03-19T16:30:17.232Z,7.40
2019-03-19T16:32:46.182Z,7.40
2019-03-19T16:35:15.106Z,7.30
2019-03-19T16:37:44.012Z,7.30
2019-03-19T16:40:20.699Z,7.30
2019-03-19T16:42:49.795Z,7.10
2019-03-19T16:45:18.820Z,6.90
2019-03-19T16:47:47.792Z,6.90
2019-03-19T16:50:23.370Z,6.90
2019-03-19T16:52:53.028Z,7.00
2019-03-19T16:55:22.465Z,7.10
2019-03-19T16:57:51.372Z,7.00
2019-03-19T17:00:29.817Z,6.90
2019-03-19T17:02:58.730Z,6.80
2019-03-19T17:05:27.554Z,6.70
2019-03-19T17:07:56.420Z,6.60
2019-03-19T17:10:30.183Z,6.50
2019-03-19T17:12:58.996Z,6.50
2019-03-19T17:15:27.838Z,6.40
2019-03-19T17:17:56.825Z,6.50
2019-03-19T17:20:25.637Z,6.60
2019-03-19T17:22:54.461Z,6.60
2019-03-19T17:25:27.448Z,6.70
2019-03-19T17:27:56.401Z,6.70
2019-03-19T17:30:30.232Z,6.60
2019-03-19T17:32:59.155Z,6.60
2019-03-19T17:35:28.002Z,6.60
2019-03-19T17:37:56.923Z,6.60
2019-03-19T17:40:25.836Z,6.60
2019-03-19T17:42:54.682Z,6.60
2019-03-19T17:45:23.514Z,6.50
2019-03-19T17:47:52.392Z,6.60
2019-03-19T17:50:36.012Z,6.70
2019-03-19T17:53:05.110Z,6.60
2019-03-19T17:55:33.978Z,6.50
2019-03-19T17:58:02.818Z,6.50
2019-03-19T18:00:33.279Z,6.60
2019-03-19T18:03:02.109Z,6.60
2019-03-19T18:05:30.972Z,6.60
2019-03-19T18:07:59.858Z,6.60
2019-03-19T18:10:28.687Z,6.60
2019-03-19T18:13:00.280Z,6.60
2019-03-19T18:15:29.234Z,6.60
2019-03-19T18:17:58.065Z,6.70
2019-03-19T18:20:26.905Z,6.60
2019-03-19T18:22:55.800Z,6.60
2019-03-19T18:25:24.650Z,6.70
2019-03-19T18:27:53.487Z,6.60
2019-03-19T18:30:24.511Z,6.60
2019-03-19T18:32:53.350Z,6.60
2019-03-19T18:35:22.457Z,6.60
2019-03-19T18:37:51.462Z,6.50
2019-03-19T18:40:20.916Z,6.50
2019-03-19T18:42:49.769Z,6.50
2019-03-19T18:45:21.971Z,6.50
2019-03-19T18:47:50.828Z,6.50
2019-03-19T18:50:20.776Z,6.60
2019-03-19T18:52:49.649Z,6.80
2019-03-19T18:55:18.604Z,6.90
2019-03-19T18:57:47.451Z,7.10
2019-03-19T19:00:17.729Z,7.20
2019-03-19T19:02:50.003Z,7.30
2019-03-19T19:05:18.165Z,7.20
2019-03-19T19:07:47.066Z,7.30
2019-03-19T19:10:17.765Z,7.30
2019-03-19T19:12:46.612Z,7.30
2019-03-19T19:15:24.962Z,7.30
2019-03-19T19:17:53.839Z,7.20
2019-03-19T19:20:22.650Z,7.10
2019-03-19T19:22:51.529Z,7.10
2019-03-19T19:25:21.867Z,7.10
2019-03-19T19:27:50.718Z,7.10
2019-03-19T19:30:27.030Z,7.10
2019-03-19T19:33:01.425Z,7.10
2019-03-19T19:35:26.345Z,7.10
2019-03-19T19:37:55.238Z,7.10
2019-03-19T19:40:24.234Z,7.10
2019-03-19T19:42:53.074Z,7.00
2019-03-19T19:45:21.973Z,7.00
2019-03-19T19:47:50.819Z,6.90
2019-03-19T19:50:23.398Z,6.90
2019-03-19T19:52:52.290Z,6.80
2019-03-19T19:55:21.146Z,6.70
2019-03-19T19:57:50.004Z,6.60
2019-03-19T20:00:19.785Z,6.50
2019-03-19T20:02:53.932Z,6.60
2019-03-19T20:05:22.767Z,6.60
2019-03-19T20:07:51.686Z,6.70
2019-03-19T20:10:24.963Z,6.80
2019-03-19T20:12:53.791Z,6.70
2019-03-19T20:15:22.952Z,6.60
2019-03-19T20:17:51.783Z,6.60
2019-03-19T20:20:21.741Z,6.60
2019-03-19T20:22:50.605Z,6.60
2019-03-19T20:25:19.551Z,6.50
2019-03-19T20:27:48.401Z,6.40
2019-03-19T20:30:25.149Z,6.40
2019-03-19T20:32:54.003Z,6.20
2019-03-19T20:35:22.853Z,6.20
2019-03-19T20:37:51.702Z,6.10
2019-03-19T20:40:20.674Z,6.10
2019-03-19T20:42:49.535Z,6.10
2019-03-19T20:45:20.221Z,6.10
2019-03-19T20:47:49.062Z,6.10
2019-03-19T20:50:20.853Z,6.20
2019-03-19T20:52:49.840Z,6.20
2019-03-19T20:55:18.700Z,6.20
2019-03-19T20:57:47.532Z,6.20
2019-03-19T21:00:18.232Z,6.20
2019-03-19T21:02:47.066Z,6.10
2019-03-19T21:05:15.983Z,6.10
2019-03-19T21:07:44.896Z,6.10
2019-03-19T21:10:16.330Z,6.20
2019-03-19T21:12:45.155Z,6.10
2019-03-19T21:15:19.185Z,6.10
2019-03-19T21:17:48.533Z,6.10
2019-03-19T21:20:17.488Z,6.20
2019-03-19T21:22:46.380Z,6.40
2019-03-19T21:25:15.229Z,6.30
2019-03-19T21:27:44.084Z,6.20
2019-03-19T21:30:20.212Z,6.10
2019-03-19T21:32:49.051Z,6.10
2019-03-19T21:35:19.977Z,6.10
2019-03-19T21:37:49.157Z,6.10
2019-03-19T21:40:18.104Z,6.00
2019-03-19T21:42:46.940Z,6.10
2019-03-19T21:45:18.180Z,6.10
2019-03-19T21:47:47.125Z,6.10
2019-03-19T21:50:17.272Z,6.10
2019-03-19T21:52:46.182Z,6.00
2019-03-19T21:55:15.121Z,5.90
2019-03-19T21:57:43.973Z,5.90
2019-03-19T22:00:15.722Z,5.80
2019-03-19T22:02:44.633Z,5.80
2019-03-19T22:05:13.625Z,5.80
2019-03-19T22:07:42.618Z,5.70
2019-03-19T22:10:16.135Z,5.70
2019-03-19T22:12:45.184Z,5.70
2019-03-19T22:15:16.097Z,5.60
2019-03-19T22:17:47.801Z,5.60
2019-03-19T22:20:16.897Z,5.60
2019-03-19T22:22:45.863Z,5.60
2019-03-19T22:25:17.958Z,5.60
2019-03-19T22:27:46.851Z,5.70
2019-03-19T22:30:18.092Z,5.70
2019-03-19T22:32:47.241Z,5.60
2019-03-19T22:35:16.354Z,5.60
2019-03-19T22:37:45.581Z,5.60
2019-03-19T22:40:18.934Z,5.50
2019-03-19T22:42:47.943Z,5.60
2019-03-19T22:45:17.964Z,5.60
2019-03-19T22:47:47.060Z,5.60
2019-03-19T22:50:16.906Z,5.60
2019-03-19T22:52:46.087Z,5.60
2019-03-19T22:55:15.620Z,5.60
2019-03-19T22:57:44.894Z,5.50
2019-03-19T23:00:23.281Z,5.40
2019-03-19T23:02:52.586Z,5.50
2019-03-19T23:05:21.469Z,5.40
2019-03-19T23:07:50.489Z,5.30
2019-03-19T23:10:19.379Z,5.20
2019-03-19T23:12:48.246Z,5.10
2019-03-19T23:15:17.138Z,5.10
2019-03-19T23:17:46.050Z,5.20
2019-03-19T23:20:15.453Z,5.40
2019-03-19T23:22:44.551Z,5.50
2019-03-19T23:25:13.726Z,5.50
2019-03-19T23:27:42.616Z,5.40
2019-03-19T23:30:17.570Z,5.40
2019-03-19T23:32:46.440Z,5.40
2019-03-19T23:35:15.452Z,5.50
2019-03-19T23:37:44.419Z,5.50
2019-03-19T23:40:14.567Z,5.60
2019-03-19T23:42:43.531Z,5.60
2019-03-19T23:45:13.409Z,5.60
2019-03-19T23:47:42.361Z,5.70
2019-03-19T23:50:21.001Z,5.70
2019-03-19T23:52:49.944Z,5.70
2019-03-19T23:55:18.862Z,5.80
2019-03-19T23:57:47.779Z,5.80
